sensor_id;sensor_type;location;lat;lon;timestamp;P1;durP1;ratioP1;P2;durP2;ratioP2
51292;SDS011;37377;45.186;9.778;2022-12-07T00:00:55;86.65;;;17.20;;
51292;SDS011;37377;45.186;9.778;2022-12-07T00:03:30;233.82;;;20.00;;
51292;SDS011;37377;45.186;9.778;2022-12-07T00:05:58;160.60;;;16.60;;
51292;SDS011;37377;45.186;9.778;2022-12-07T00:08:25;152.07;;;17.00;;
51292;SDS011;37377;45.186;9.778;2022-12-07T00:10:52;64.60;;;15.52;;
51292;SDS011;37377;45.186;9.778;2022-12-07T00:13:19;23.02;;;16.42;;
51292;SDS011;37377;45.186;9.778;2022-12-07T00:15:46;36.53;;;17.85;;
51292;SDS011;37377;45.186;9.778;2022-12-07T00:18:12;37.80;;;19.85;;
51292;SDS011;37377;45.186;9.778;2022-12-07T00:20:39;35.70;;;21.10;;
51292;SDS011;37377;45.186;9.778;2022-12-07T00:23:06;29.90;;;19.58;;
51292;SDS011;37377;45.186;9.778;2022-12-07T00:25:33;71.18;;;20.02;;
51292;SDS011;37377;45.186;9.778;2022-12-07T00:28:00;39.28;;;20.52;;
51292;SDS011;37377;45.186;9.778;2022-12-07T00:30:27;181.43;;;19.30;;
51292;SDS011;37377;45.186;9.778;2022-12-07T00:32:54;33.97;;;17.25;;
51292;SDS011;37377;45.186;9.778;2022-12-07T00:35:20;89.65;;;18.05;;
51292;SDS011;37377;45.186;9.778;2022-12-07T00:37:47;34.33;;;18.15;;
51292;SDS011;37377;45.186;9.778;2022-12-07T00:40:14;35.05;;;18.50;;
51292;SDS011;37377;45.186;9.778;2022-12-07T00:42:40;39.08;;;18.85;;
51292;SDS011;37377;45.186;9.778;2022-12-07T00:45:07;74.57;;;17.55;;
51292;SDS011;37377;45.186;9.778;2022-12-07T00:47:34;30.38;;;19.08;;
51292;SDS011;37377;45.186;9.778;2022-12-07T00:50:01;83.00;;;15.93;;
51292;SDS011;37377;45.186;9.778;2022-12-07T00:52:28;204.98;;;16.55;;
51292;SDS011;37377;45.186;9.778;2022-12-07T00:54:55;88.07;;;16.48;;
51292;SDS011;37377;45.186;9.778;2022-12-07T00:57:22;134.10;;;15.32;;
51292;SDS011;37377;45.186;9.778;2022-12-07T00:59:49;54.50;;;16.90;;
51292;SDS011;37377;45.186;9.778;2022-12-07T01:02:16;108.32;;;20.00;;
51292;SDS011;37377;45.186;9.778;2022-12-07T01:04:43;70.45;;;15.90;;
51292;SDS011;37377;45.186;9.778;2022-12-07T01:07:10;155.32;;;16.15;;
51292;SDS011;37377;45.186;9.778;2022-12-07T01:09:37;102.85;;;18.55;;
51292;SDS011;37377;45.186;9.778;2022-12-07T01:12:03;79.28;;;18.40;;
51292;SDS011;37377;45.186;9.778;2022-12-07T01:14:30;59.15;;;18.48;;
51292;SDS011;37377;45.186;9.778;2022-12-07T01:16:57;154.98;;;18.15;;
51292;SDS011;37377;45.186;9.778;2022-12-07T01:19:24;183.38;;;16.92;;
51292;SDS011;37377;45.186;9.778;2022-12-07T01:21:51;138.02;;;16.48;;
51292;SDS011;37377;45.186;9.778;2022-12-07T01:24:18;162.45;;;16.63;;
51292;SDS011;37377;45.186;9.778;2022-12-07T01:26:44;166.50;;;15.63;;
51292;SDS011;37377;45.186;9.778;2022-12-07T01:29:11;88.65;;;17.63;;
51292;SDS011;37377;45.186;9.778;2022-12-07T01:31:38;48.10;;;18.90;;
51292;SDS011;37377;45.186;9.778;2022-12-07T01:34:05;43.25;;;19.63;;
51292;SDS011;37377;45.186;9.778;2022-12-07T01:36:33;60.60;;;19.73;;
51292;SDS011;37377;45.186;9.778;2022-12-07T01:39:02;47.15;;;19.65;;
51292;SDS011;37377;45.186;9.778;2022-12-07T01:41:31;77.32;;;18.58;;
51292;SDS011;37377;45.186;9.778;2022-12-07T01:44:15;63.25;;;17.85;;
51292;SDS011;37377;45.186;9.778;2022-12-07T01:46:43;181.07;;;16.15;;
51292;SDS011;37377;45.186;9.778;2022-12-07T01:52:01;104.70;;;16.65;;
51292;SDS011;37377;45.186;9.778;2022-12-07T01:54:28;29.55;;;17.42;;
51292;SDS011;37377;45.186;9.778;2022-12-07T01:56:55;37.15;;;17.02;;
51292;SDS011;37377;45.186;9.778;2022-12-07T01:59:23;63.42;;;18.98;;
51292;SDS011;37377;45.186;9.778;2022-12-07T02:01:53;66.80;;;16.83;;
51292;SDS011;37377;45.186;9.778;2022-12-07T02:04:22;38.42;;;17.35;;
51292;SDS011;37377;45.186;9.778;2022-12-07T02:06:49;26.63;;;16.48;;
51292;SDS011;37377;45.186;9.778;2022-12-07T02:09:16;69.97;;;17.67;;
51292;SDS011;37377;45.186;9.778;2022-12-07T02:11:43;33.75;;;17.45;;
51292;SDS011;37377;45.186;9.778;2022-12-07T02:14:10;38.17;;;16.80;;
51292;SDS011;37377;45.186;9.778;2022-12-07T02:16:42;55.42;;;17.85;;
51292;SDS011;37377;45.186;9.778;2022-12-07T02:24:31;79.93;;;18.10;;
51292;SDS011;37377;45.186;9.778;2022-12-07T02:27:16;77.68;;;17.85;;
51292;SDS011;37377;45.186;9.778;2022-12-07T02:30:06;132.40;;;15.23;;
51292;SDS011;37377;45.186;9.778;2022-12-07T02:35:09;76.90;;;14.95;;
51292;SDS011;37377;45.186;9.778;2022-12-07T02:37:42;46.90;;;15.75;;
51292;SDS011;37377;45.186;9.778;2022-12-07T02:40:12;81.73;;;13.77;;
51292;SDS011;37377;45.186;9.778;2022-12-07T02:42:45;132.35;;;13.55;;
51292;SDS011;37377;45.186;9.778;2022-12-07T02:45:13;43.78;;;16.13;;
51292;SDS011;37377;45.186;9.778;2022-12-07T02:47:41;58.92;;;14.90;;
51292;SDS011;37377;45.186;9.778;2022-12-07T02:50:08;65.80;;;14.13;;
51292;SDS011;37377;45.186;9.778;2022-12-07T02:52:35;53.03;;;13.32;;
51292;SDS011;37377;45.186;9.778;2022-12-07T02:55:03;19.92;;;13.20;;
51292;SDS011;37377;45.186;9.778;2022-12-07T03:00:17;25.85;;;12.57;;
51292;SDS011;37377;45.186;9.778;2022-12-07T03:18:22;10.13;;;9.05;;
51292;SDS011;37377;45.186;9.778;2022-12-07T03:20:50;13.65;;;10.38;;
51292;SDS011;37377;45.186;9.778;2022-12-07T03:23:18;9.95;;;8.88;;
51292;SDS011;37377;45.186;9.778;2022-12-07T03:25:47;11.55;;;8.95;;
51292;SDS011;37377;45.186;9.778;2022-12-07T03:28:16;25.17;;;8.77;;
51292;SDS011;37377;45.186;9.778;2022-12-07T03:30:56;12.23;;;9.63;;
51292;SDS011;37377;45.186;9.778;2022-12-07T03:33:24;13.48;;;9.50;;
51292;SDS011;37377;45.186;9.778;2022-12-07T03:35:56;16.80;;;11.30;;
51292;SDS011;37377;45.186;9.778;2022-12-07T03:38:28;24.35;;;12.02;;
51292;SDS011;37377;45.186;9.778;2022-12-07T03:43:24;30.13;;;12.32;;
51292;SDS011;37377;45.186;9.778;2022-12-07T03:45:58;19.50;;;13.80;;
51292;SDS011;37377;45.186;9.778;2022-12-07T03:50:58;26.27;;;13.70;;
51292;SDS011;37377;45.186;9.778;2022-12-07T03:53:34;32.13;;;13.77;;
51292;SDS011;37377;45.186;9.778;2022-12-07T03:56:03;25.25;;;13.88;;
51292;SDS011;37377;45.186;9.778;2022-12-07T03:58:30;37.97;;;14.00;;
51292;SDS011;37377;45.186;9.778;2022-12-07T04:00:58;25.00;;;13.65;;
51292;SDS011;37377;45.186;9.778;2022-12-07T04:03:26;64.72;;;14.40;;
51292;SDS011;37377;45.186;9.778;2022-12-07T04:05:53;40.70;;;16.17;;
51292;SDS011;37377;45.186;9.778;2022-12-07T04:08:20;38.47;;;15.35;;
51292;SDS011;37377;45.186;9.778;2022-12-07T04:10:47;40.13;;;15.10;;
51292;SDS011;37377;45.186;9.778;2022-12-07T04:13:14;39.42;;;16.95;;
51292;SDS011;37377;45.186;9.778;2022-12-07T04:15:40;56.70;;;19.80;;
51292;SDS011;37377;45.186;9.778;2022-12-07T04:18:07;58.15;;;19.92;;
51292;SDS011;37377;45.186;9.778;2022-12-07T04:20:34;44.70;;;19.58;;
51292;SDS011;37377;45.186;9.778;2022-12-07T04:23:01;54.17;;;21.40;;
51292;SDS011;37377;45.186;9.778;2022-12-07T04:25:28;53.58;;;19.98;;
51292;SDS011;37377;45.186;9.778;2022-12-07T04:27:55;52.67;;;21.75;;
51292;SDS011;37377;45.186;9.778;2022-12-07T04:30:22;59.97;;;18.70;;
51292;SDS011;37377;45.186;9.778;2022-12-07T04:32:48;51.55;;;18.30;;
51292;SDS011;37377;45.186;9.778;2022-12-07T04:35:15;44.65;;;18.55;;
51292;SDS011;37377;45.186;9.778;2022-12-07T04:37:42;42.42;;;19.00;;
51292;SDS011;37377;45.186;9.778;2022-12-07T04:40:09;28.42;;;17.27;;
51292;SDS011;37377;45.186;9.778;2022-12-07T04:42:38;27.92;;;18.00;;
51292;SDS011;37377;45.186;9.778;2022-12-07T04:45:05;29.73;;;17.20;;
51292;SDS011;37377;45.186;9.778;2022-12-07T04:47:32;27.80;;;18.30;;
51292;SDS011;37377;45.186;9.778;2022-12-07T04:49:59;31.75;;;16.67;;
51292;SDS011;37377;45.186;9.778;2022-12-07T04:52:27;36.00;;;16.80;;
51292;SDS011;37377;45.186;9.778;2022-12-07T04:54:54;25.75;;;16.45;;
51292;SDS011;37377;45.186;9.778;2022-12-07T04:57:21;22.45;;;16.08;;
51292;SDS011;37377;45.186;9.778;2022-12-07T04:59:48;22.52;;;14.88;;
51292;SDS011;37377;45.186;9.778;2022-12-07T05:02:15;23.98;;;15.50;;
51292;SDS011;37377;45.186;9.778;2022-12-07T05:04:42;21.08;;;14.82;;
51292;SDS011;37377;45.186;9.778;2022-12-07T05:07:09;24.45;;;16.08;;
51292;SDS011;37377;45.186;9.778;2022-12-07T05:09:36;26.77;;;16.35;;
51292;SDS011;37377;45.186;9.778;2022-12-07T05:12:04;43.33;;;14.65;;
51292;SDS011;37377;45.186;9.778;2022-12-07T05:14:31;58.33;;;15.10;;
51292;SDS011;37377;45.186;9.778;2022-12-07T05:16:58;57.17;;;16.13;;
51292;SDS011;37377;45.186;9.778;2022-12-07T05:19:24;25.77;;;16.95;;
51292;SDS011;37377;45.186;9.778;2022-12-07T05:21:52;26.17;;;17.42;;
51292;SDS011;37377;45.186;9.778;2022-12-07T05:24:19;21.63;;;16.15;;
51292;SDS011;37377;45.186;9.778;2022-12-07T05:26:46;28.58;;;17.67;;
51292;SDS011;37377;45.186;9.778;2022-12-07T05:29:15;36.13;;;16.15;;
51292;SDS011;37377;45.186;9.778;2022-12-07T05:31:43;28.70;;;16.65;;
51292;SDS011;37377;45.186;9.778;2022-12-07T05:34:10;36.25;;;16.85;;
51292;SDS011;37377;45.186;9.778;2022-12-07T05:36:37;38.10;;;19.02;;
51292;SDS011;37377;45.186;9.778;2022-12-07T05:39:04;33.53;;;18.40;;
51292;SDS011;37377;45.186;9.778;2022-12-07T05:41:31;32.42;;;19.48;;
51292;SDS011;37377;45.186;9.778;2022-12-07T05:44:16;37.03;;;19.08;;
51292;SDS011;37377;45.186;9.778;2022-12-07T05:46:43;29.73;;;18.52;;
51292;SDS011;37377;45.186;9.778;2022-12-07T05:49:10;40.65;;;19.63;;
51292;SDS011;37377;45.186;9.778;2022-12-07T05:51:37;39.30;;;20.10;;
51292;SDS011;37377;45.186;9.778;2022-12-07T05:54:04;34.03;;;20.80;;
51292;SDS011;37377;45.186;9.778;2022-12-07T05:56:30;46.70;;;20.65;;
51292;SDS011;37377;45.186;9.778;2022-12-07T05:58:57;40.00;;;21.48;;
51292;SDS011;37377;45.186;9.778;2022-12-07T06:01:43;50.35;;;20.30;;
51292;SDS011;37377;45.186;9.778;2022-12-07T06:04:11;47.00;;;21.60;;
51292;SDS011;37377;45.186;9.778;2022-12-07T06:06:38;44.40;;;21.83;;
51292;SDS011;37377;45.186;9.778;2022-12-07T06:09:05;46.03;;;21.38;;
51292;SDS011;37377;45.186;9.778;2022-12-07T06:11:32;45.22;;;22.15;;
51292;SDS011;37377;45.186;9.778;2022-12-07T06:14:18;47.28;;;22.13;;
51292;SDS011;37377;45.186;9.778;2022-12-07T06:16:45;53.70;;;21.80;;
51292;SDS011;37377;45.186;9.778;2022-12-07T06:19:12;57.22;;;22.55;;
51292;SDS011;37377;45.186;9.778;2022-12-07T06:21:38;40.25;;;21.13;;
51292;SDS011;37377;45.186;9.778;2022-12-07T06:24:06;54.30;;;20.00;;
51292;SDS011;37377;45.186;9.778;2022-12-07T06:26:32;50.28;;;19.33;;
51292;SDS011;37377;45.186;9.778;2022-12-07T06:28:59;40.33;;;21.95;;
51292;SDS011;37377;45.186;9.778;2022-12-07T06:31:26;35.03;;;21.45;;
51292;SDS011;37377;45.186;9.778;2022-12-07T06:33:57;47.17;;;22.85;;
51292;SDS011;37377;45.186;9.778;2022-12-07T06:36:24;59.17;;;25.75;;
51292;SDS011;37377;45.186;9.778;2022-12-07T06:38:53;50.72;;;25.15;;
51292;SDS011;37377;45.186;9.778;2022-12-07T06:41:20;65.20;;;27.33;;
51292;SDS011;37377;45.186;9.778;2022-12-07T06:43:50;53.03;;;25.38;;
51292;SDS011;37377;45.186;9.778;2022-12-07T06:46:22;44.67;;;25.52;;
51292;SDS011;37377;45.186;9.778;2022-12-07T06:48:52;43.50;;;24.95;;
51292;SDS011;37377;45.186;9.778;2022-12-07T06:51:19;35.58;;;22.98;;
51292;SDS011;37377;45.186;9.778;2022-12-07T06:53:50;36.63;;;22.48;;
51292;SDS011;37377;45.186;9.778;2022-12-07T06:56:17;49.90;;;20.92;;
51292;SDS011;37377;45.186;9.778;2022-12-07T06:58:47;37.15;;;21.05;;
51292;SDS011;37377;45.186;9.778;2022-12-07T07:01:18;40.53;;;20.40;;
51292;SDS011;37377;45.186;9.778;2022-12-07T07:03:50;42.00;;;23.40;;
51292;SDS011;37377;45.186;9.778;2022-12-07T07:06:18;41.28;;;23.50;;
51292;SDS011;37377;45.186;9.778;2022-12-07T07:08:45;37.80;;;23.33;;
51292;SDS011;37377;45.186;9.778;2022-12-07T07:11:18;42.13;;;24.13;;
51292;SDS011;37377;45.186;9.778;2022-12-07T07:13:53;36.92;;;22.52;;
51292;SDS011;37377;45.186;9.778;2022-12-07T07:16:25;31.80;;;21.92;;
51292;SDS011;37377;45.186;9.778;2022-12-07T07:18:53;43.92;;;22.52;;
51292;SDS011;37377;45.186;9.778;2022-12-07T07:21:25;39.78;;;23.42;;
51292;SDS011;37377;45.186;9.778;2022-12-07T07:23:52;35.42;;;24.25;;
51292;SDS011;37377;45.186;9.778;2022-12-07T07:26:19;42.45;;;23.40;;
51292;SDS011;37377;45.186;9.778;2022-12-07T07:28:49;45.25;;;23.60;;
51292;SDS011;37377;45.186;9.778;2022-12-07T07:31:16;40.55;;;25.23;;
51292;SDS011;37377;45.186;9.778;2022-12-07T07:33:42;34.95;;;22.00;;
51292;SDS011;37377;45.186;9.778;2022-12-07T07:36:09;36.08;;;23.98;;
51292;SDS011;37377;45.186;9.778;2022-12-07T07:38:36;35.63;;;24.27;;
51292;SDS011;37377;45.186;9.778;2022-12-07T07:41:03;55.92;;;25.73;;
51292;SDS011;37377;45.186;9.778;2022-12-07T07:43:30;36.30;;;24.02;;
51292;SDS011;37377;45.186;9.778;2022-12-07T07:45:57;37.53;;;25.88;;
51292;SDS011;37377;45.186;9.778;2022-12-07T07:48:24;44.80;;;27.92;;
51292;SDS011;37377;45.186;9.778;2022-12-07T07:50:52;43.20;;;26.13;;
51292;SDS011;37377;45.186;9.778;2022-12-07T07:53:19;46.05;;;24.15;;
51292;SDS011;37377;45.186;9.778;2022-12-07T07:55:52;47.88;;;26.35;;
51292;SDS011;37377;45.186;9.778;2022-12-07T07:58:20;52.67;;;26.85;;
51292;SDS011;37377;45.186;9.778;2022-12-07T08:00:48;42.75;;;25.60;;
51292;SDS011;37377;45.186;9.778;2022-12-07T08:03:16;34.35;;;24.30;;
51292;SDS011;37377;45.186;9.778;2022-12-07T08:05:43;39.38;;;24.70;;
51292;SDS011;37377;45.186;9.778;2022-12-07T08:08:09;40.42;;;25.83;;
51292;SDS011;37377;45.186;9.778;2022-12-07T08:10:36;40.97;;;27.05;;
51292;SDS011;37377;45.186;9.778;2022-12-07T08:13:03;38.30;;;25.45;;
51292;SDS011;37377;45.186;9.778;2022-12-07T08:15:43;42.00;;;25.80;;
51292;SDS011;37377;45.186;9.778;2022-12-07T08:18:11;43.92;;;25.80;;
51292;SDS011;37377;45.186;9.778;2022-12-07T08:20:38;48.83;;;27.95;;
51292;SDS011;37377;45.186;9.778;2022-12-07T08:23:06;40.67;;;27.23;;
51292;SDS011;37377;45.186;9.778;2022-12-07T08:25:33;42.33;;;26.30;;
51292;SDS011;37377;45.186;9.778;2022-12-07T08:28:03;45.72;;;26.45;;
51292;SDS011;37377;45.186;9.778;2022-12-07T08:30:30;49.80;;;26.40;;
51292;SDS011;37377;45.186;9.778;2022-12-07T08:32:57;44.55;;;26.95;;
51292;SDS011;37377;45.186;9.778;2022-12-07T08:35:24;46.78;;;28.27;;
51292;SDS011;37377;45.186;9.778;2022-12-07T08:37:51;58.40;;;28.58;;
51292;SDS011;37377;45.186;9.778;2022-12-07T08:40:18;48.15;;;29.40;;
51292;SDS011;37377;45.186;9.778;2022-12-07T08:42:50;44.78;;;27.35;;
51292;SDS011;37377;45.186;9.778;2022-12-07T08:45:18;42.30;;;27.33;;
51292;SDS011;37377;45.186;9.778;2022-12-07T08:48:11;46.63;;;28.65;;
51292;SDS011;37377;45.186;9.778;2022-12-07T08:50:39;61.17;;;30.05;;
51292;SDS011;37377;45.186;9.778;2022-12-07T08:53:14;50.95;;;28.85;;
51292;SDS011;37377;45.186;9.778;2022-12-07T08:55:41;44.55;;;28.23;;
51292;SDS011;37377;45.186;9.778;2022-12-07T08:58:08;50.70;;;29.55;;
51292;SDS011;37377;45.186;9.778;2022-12-07T09:00:34;47.80;;;27.70;;
51292;SDS011;37377;45.186;9.778;2022-12-07T09:03:01;45.80;;;28.52;;
51292;SDS011;37377;45.186;9.778;2022-12-07T09:05:28;42.78;;;27.77;;
51292;SDS011;37377;45.186;9.778;2022-12-07T09:07:55;45.35;;;29.05;;
51292;SDS011;37377;45.186;9.778;2022-12-07T09:10:23;42.88;;;27.25;;
51292;SDS011;37377;45.186;9.778;2022-12-07T09:12:50;46.85;;;27.33;;
51292;SDS011;37377;45.186;9.778;2022-12-07T09:15:17;50.13;;;28.02;;
51292;SDS011;37377;45.186;9.778;2022-12-07T09:17:44;46.28;;;27.40;;
51292;SDS011;37377;45.186;9.778;2022-12-07T09:20:11;51.35;;;29.80;;
51292;SDS011;37377;45.186;9.778;2022-12-07T09:22:38;53.47;;;29.30;;
51292;SDS011;37377;45.186;9.778;2022-12-07T09:25:05;45.05;;;28.80;;
51292;SDS011;37377;45.186;9.778;2022-12-07T09:27:32;53.45;;;29.73;;
51292;SDS011;37377;45.186;9.778;2022-12-07T09:29:59;53.88;;;30.02;;
51292;SDS011;37377;45.186;9.778;2022-12-07T09:32:26;61.90;;;30.92;;
51292;SDS011;37377;45.186;9.778;2022-12-07T09:34:53;60.10;;;30.58;;
51292;SDS011;37377;45.186;9.778;2022-12-07T09:37:20;59.20;;;32.47;;
51292;SDS011;37377;45.186;9.778;2022-12-07T09:39:47;56.83;;;33.28;;
51292;SDS011;37377;45.186;9.778;2022-12-07T09:44:55;53.65;;;30.92;;
51292;SDS011;37377;45.186;9.778;2022-12-07T09:47:25;58.60;;;33.45;;
51292;SDS011;37377;45.186;9.778;2022-12-07T09:49:53;59.88;;;34.55;;
51292;SDS011;37377;45.186;9.778;2022-12-07T09:52:25;58.53;;;32.50;;
51292;SDS011;37377;45.186;9.778;2022-12-07T09:54:56;57.95;;;33.25;;
51292;SDS011;37377;45.186;9.778;2022-12-07T09:57:30;61.17;;;34.40;;
51292;SDS011;37377;45.186;9.778;2022-12-07T09:59:59;56.42;;;31.58;;
51292;SDS011;37377;45.186;9.778;2022-12-07T10:05:06;60.67;;;34.78;;
51292;SDS011;37377;45.186;9.778;2022-12-07T10:07:50;65.18;;;34.15;;
51292;SDS011;37377;45.186;9.778;2022-12-07T10:10:24;63.22;;;34.72;;
51292;SDS011;37377;45.186;9.778;2022-12-07T10:13:01;64.63;;;35.80;;
51292;SDS011;37377;45.186;9.778;2022-12-07T10:18:20;67.93;;;35.42;;
51292;SDS011;37377;45.186;9.778;2022-12-07T10:20:47;59.55;;;35.08;;
51292;SDS011;37377;45.186;9.778;2022-12-07T10:23:22;62.28;;;36.50;;
51292;SDS011;37377;45.186;9.778;2022-12-07T10:25:49;68.07;;;36.53;;
51292;SDS011;37377;45.186;9.778;2022-12-07T10:28:27;70.18;;;38.75;;
51292;SDS011;37377;45.186;9.778;2022-12-07T10:31:25;62.75;;;34.88;;
51292;SDS011;37377;45.186;9.778;2022-12-07T10:33:58;66.88;;;37.42;;
51292;SDS011;37377;45.186;9.778;2022-12-07T10:41:26;71.68;;;39.28;;
51292;SDS011;37377;45.186;9.778;2022-12-07T10:43:55;86.68;;;41.30;;
51292;SDS011;37377;45.186;9.778;2022-12-07T10:48:59;70.93;;;39.42;;
51292;SDS011;37377;45.186;9.778;2022-12-07T10:51:46;83.10;;;39.80;;
51292;SDS011;37377;45.186;9.778;2022-12-07T10:54:41;76.10;;;39.25;;
51292;SDS011;37377;45.186;9.778;2022-12-07T11:16:33;82.95;;;48.65;;
51292;SDS011;37377;45.186;9.778;2022-12-07T11:32:03;75.80;;;43.00;;
51292;SDS011;37377;45.186;9.778;2022-12-07T11:37:12;74.22;;;40.90;;
51292;SDS011;37377;45.186;9.778;2022-12-07T11:42:19;79.45;;;39.58;;
51292;SDS011;37377;45.186;9.778;2022-12-07T11:47:36;74.25;;;40.63;;
51292;SDS011;37377;45.186;9.778;2022-12-07T11:52:45;69.32;;;37.58;;
51292;SDS011;37377;45.186;9.778;2022-12-07T11:55:39;67.65;;;38.88;;
51292;SDS011;37377;45.186;9.778;2022-12-07T12:01:36;75.68;;;40.72;;
51292;SDS011;37377;45.186;9.778;2022-12-07T12:03:52;95.50;;;42.53;;
51292;SDS011;37377;45.186;9.778;2022-12-07T12:06:20;84.60;;;41.50;;
51292;SDS011;37377;45.186;9.778;2022-12-07T12:12:01;78.93;;;42.33;;
51292;SDS011;37377;45.186;9.778;2022-12-07T12:20:22;76.15;;;41.20;;
51292;SDS011;37377;45.186;9.778;2022-12-07T12:22:52;72.82;;;41.10;;
51292;SDS011;37377;45.186;9.778;2022-12-07T12:25:23;72.05;;;41.03;;
51292;SDS011;37377;45.186;9.778;2022-12-07T12:27:58;69.55;;;39.92;;
51292;SDS011;37377;45.186;9.778;2022-12-07T12:30:37;75.35;;;42.13;;
51292;SDS011;37377;45.186;9.778;2022-12-07T12:35:42;84.95;;;43.97;;
51292;SDS011;37377;45.186;9.778;2022-12-07T12:40:55;87.90;;;42.65;;
51292;SDS011;37377;45.186;9.778;2022-12-07T12:51:41;84.13;;;44.60;;
51292;SDS011;37377;45.186;9.778;2022-12-07T12:54:18;83.95;;;44.17;;
51292;SDS011;37377;45.186;9.778;2022-12-07T12:59:32;86.23;;;45.37;;
51292;SDS011;37377;45.186;9.778;2022-12-07T13:04:38;75.10;;;42.88;;
51292;SDS011;37377;45.186;9.778;2022-12-07T13:07:10;83.55;;;44.88;;
51292;SDS011;37377;45.186;9.778;2022-12-07T13:09:43;76.68;;;43.67;;
51292;SDS011;37377;45.186;9.778;2022-12-07T13:12:14;81.75;;;42.58;;
51292;SDS011;37377;45.186;9.778;2022-12-07T13:14:55;79.75;;;44.72;;
51292;SDS011;37377;45.186;9.778;2022-12-07T13:19:59;78.85;;;44.35;;
51292;SDS011;37377;45.186;9.778;2022-12-07T13:25:11;72.57;;;43.08;;
51292;SDS011;37377;45.186;9.778;2022-12-07T13:27:44;75.75;;;43.97;;
51292;SDS011;37377;45.186;9.778;2022-12-07T13:30:17;92.78;;;45.55;;
51292;SDS011;37377;45.186;9.778;2022-12-07T13:32:58;94.22;;;48.00;;
51292;SDS011;37377;45.186;9.778;2022-12-07T13:35:36;81.05;;;45.42;;
51292;SDS011;37377;45.186;9.778;2022-12-07T13:38:19;90.70;;;47.53;;
51292;SDS011;37377;45.186;9.778;2022-12-07T13:43:58;108.82;;;60.92;;
51292;SDS011;37377;45.186;9.778;2022-12-07T13:49:24;85.65;;;46.40;;
51292;SDS011;37377;45.186;9.778;2022-12-07T13:51:51;90.97;;;48.45;;
51292;SDS011;37377;45.186;9.778;2022-12-07T13:54:21;88.07;;;48.17;;
51292;SDS011;37377;45.186;9.778;2022-12-07T13:56:50;94.00;;;54.30;;
51292;SDS011;37377;45.186;9.778;2022-12-07T13:59:23;91.10;;;51.90;;
51292;SDS011;37377;45.186;9.778;2022-12-07T14:01:52;103.53;;;54.53;;
51292;SDS011;37377;45.186;9.778;2022-12-07T14:04:34;93.55;;;52.15;;
51292;SDS011;37377;45.186;9.778;2022-12-07T14:07:21;94.50;;;52.17;;
51292;SDS011;37377;45.186;9.778;2022-12-07T14:09:57;89.18;;;47.05;;
51292;SDS011;37377;45.186;9.778;2022-12-07T14:12:24;86.57;;;46.33;;
51292;SDS011;37377;45.186;9.778;2022-12-07T14:14:55;84.05;;;50.55;;
51292;SDS011;37377;45.186;9.778;2022-12-07T14:17:25;92.35;;;49.05;;
51292;SDS011;37377;45.186;9.778;2022-12-07T14:20:01;106.07;;;58.58;;
51292;SDS011;37377;45.186;9.778;2022-12-07T14:27:55;91.50;;;48.50;;
51292;SDS011;37377;45.186;9.778;2022-12-07T14:30:27;96.93;;;49.17;;
51292;SDS011;37377;45.186;9.778;2022-12-07T14:32:57;90.43;;;49.50;;
51292;SDS011;37377;45.186;9.778;2022-12-07T14:35:27;84.35;;;46.58;;
51292;SDS011;37377;45.186;9.778;2022-12-07T14:37:58;84.28;;;49.08;;
51292;SDS011;37377;45.186;9.778;2022-12-07T14:40:28;93.25;;;49.53;;
51292;SDS011;37377;45.186;9.778;2022-12-07T14:43:05;90.70;;;49.55;;
51292;SDS011;37377;45.186;9.778;2022-12-07T14:45:36;83.43;;;47.70;;
51292;SDS011;37377;45.186;9.778;2022-12-07T14:48:07;89.53;;;49.42;;
51292;SDS011;37377;45.186;9.778;2022-12-07T14:51:00;82.18;;;47.90;;
51292;SDS011;37377;45.186;9.778;2022-12-07T14:53:52;87.75;;;49.22;;
51292;SDS011;37377;45.186;9.778;2022-12-07T14:56:34;86.53;;;47.67;;
51292;SDS011;37377;45.186;9.778;2022-12-07T14:59:04;79.30;;;44.70;;
51292;SDS011;37377;45.186;9.778;2022-12-07T15:01:35;83.03;;;46.55;;
51292;SDS011;37377;45.186;9.778;2022-12-07T15:04:09;90.00;;;47.08;;
51292;SDS011;37377;45.186;9.778;2022-12-07T15:06:41;86.60;;;47.92;;
51292;SDS011;37377;45.186;9.778;2022-12-07T15:09:14;84.30;;;46.92;;
51292;SDS011;37377;45.186;9.778;2022-12-07T15:11:44;89.13;;;49.38;;
51292;SDS011;37377;45.186;9.778;2022-12-07T15:14:13;89.88;;;53.05;;
51292;SDS011;37377;45.186;9.778;2022-12-07T15:16:46;91.40;;;50.70;;
51292;SDS011;37377;45.186;9.778;2022-12-07T15:19:41;92.03;;;51.50;;
51292;SDS011;37377;45.186;9.778;2022-12-07T15:22:09;91.07;;;51.75;;
51292;SDS011;37377;45.186;9.778;2022-12-07T15:24:41;92.72;;;53.28;;
51292;SDS011;37377;45.186;9.778;2022-12-07T15:27:13;98.72;;;51.05;;
51292;SDS011;37377;45.186;9.778;2022-12-07T15:29:52;97.97;;;49.80;;
51292;SDS011;37377;45.186;9.778;2022-12-07T15:32:23;98.07;;;51.47;;
51292;SDS011;37377;45.186;9.778;2022-12-07T15:34:52;90.82;;;51.40;;
51292;SDS011;37377;45.186;9.778;2022-12-07T15:37:22;90.40;;;51.55;;
51292;SDS011;37377;45.186;9.778;2022-12-07T15:39:54;94.05;;;53.35;;
51292;SDS011;37377;45.186;9.778;2022-12-07T15:42:25;99.82;;;54.78;;
51292;SDS011;37377;45.186;9.778;2022-12-07T15:44:52;92.75;;;50.47;;
51292;SDS011;37377;45.186;9.778;2022-12-07T15:47:39;101.80;;;57.17;;
51292;SDS011;37377;45.186;9.778;2022-12-07T15:50:29;102.32;;;54.58;;
51292;SDS011;37377;45.186;9.778;2022-12-07T15:52:56;103.90;;;55.28;;
51292;SDS011;37377;45.186;9.778;2022-12-07T15:55:25;103.95;;;52.88;;
51292;SDS011;37377;45.186;9.778;2022-12-07T15:57:55;99.10;;;54.55;;
51292;SDS011;37377;45.186;9.778;2022-12-07T16:00:25;97.43;;;54.75;;
51292;SDS011;37377;45.186;9.778;2022-12-07T16:03:00;92.75;;;52.85;;
51292;SDS011;37377;45.186;9.778;2022-12-07T16:05:30;94.85;;;51.28;;
51292;SDS011;37377;45.186;9.778;2022-12-07T16:08:01;95.65;;;51.53;;
51292;SDS011;37377;45.186;9.778;2022-12-07T16:10:34;91.72;;;52.42;;
51292;SDS011;37377;45.186;9.778;2022-12-07T16:13:04;89.75;;;51.40;;
51292;SDS011;37377;45.186;9.778;2022-12-07T16:15:40;90.50;;;54.33;;
51292;SDS011;37377;45.186;9.778;2022-12-07T16:18:11;100.75;;;55.05;;
51292;SDS011;37377;45.186;9.778;2022-12-07T16:20:42;104.03;;;54.55;;
51292;SDS011;37377;45.186;9.778;2022-12-07T16:23:09;103.70;;;56.45;;
51292;SDS011;37377;45.186;9.778;2022-12-07T16:25:39;106.82;;;54.15;;
51292;SDS011;37377;45.186;9.778;2022-12-07T16:28:25;125.70;;;67.60;;
51292;SDS011;37377;45.186;9.778;2022-12-07T16:31:05;296.88;;;172.15;;
51292;SDS011;37377;45.186;9.778;2022-12-07T16:33:42;103.68;;;55.47;;
51292;SDS011;37377;45.186;9.778;2022-12-07T16:36:10;94.82;;;53.22;;
51292;SDS011;37377;45.186;9.778;2022-12-07T16:38:39;88.18;;;49.85;;
51292;SDS011;37377;45.186;9.778;2022-12-07T16:41:07;91.85;;;50.63;;
51292;SDS011;37377;45.186;9.778;2022-12-07T16:43:37;100.07;;;51.20;;
51292;SDS011;37377;45.186;9.778;2022-12-07T16:46:13;101.55;;;55.83;;
51292;SDS011;37377;45.186;9.778;2022-12-07T16:48:45;99.53;;;54.22;;
51292;SDS011;37377;45.186;9.778;2022-12-07T16:51:15;106.50;;;55.65;;
51292;SDS011;37377;45.186;9.778;2022-12-07T16:53:56;107.38;;;56.50;;
51292;SDS011;37377;45.186;9.778;2022-12-07T16:56:25;114.40;;;62.83;;
51292;SDS011;37377;45.186;9.778;2022-12-07T16:58:57;109.53;;;60.35;;